Johnstown, Nebraska
Current Conditions -  °F | °C
As of 3:55 PM on Friday 31 Oct 2014 (Local Time) from KANW Reporting Station
Clear Clear  
Wind Chill: 35°   Ceiling: Unl
Heat Index: 43°   Visibility: 10mi
Dew Point: 12°   Wind: 17mph
Humidity: 29%   Direction: 150°SSE
Pressure: 30.35"   Gusts: 23mph
Location:  42.57°N, 100.06°W
Report Text: KANW 312055Z AUTO 15015G20KT 10SM CLR 06/M11 A3035 RMK AO2 T00601109
Loading
Personal Weather Stations






























Interactive Weather Map
Tropical Storm Tracking
New forecast layout! Learn more

10-Day Weather Forecast

Advertisements
Track Severe Weather on mobile